sensor_id;sensor_type;location;lat;lon;timestamp;pressure;altitude;pressure_sealevel;temperature;humidity
11415;BME280;5763;42.714;23.244;2022-07-09T00:00:54;94507.88;;;19.62;93.58
11415;BME280;5763;42.714;23.244;2022-07-09T00:03:21;94501.31;;;19.60;94.18
11415;BME280;5763;42.714;23.244;2022-07-09T00:05:48;94498.28;;;19.58;94.70
11415;BME280;5763;42.714;23.244;2022-07-09T00:08:14;94508.38;;;19.55;94.82
11415;BME280;5763;42.714;23.244;2022-07-09T00:10:41;94509.91;;;19.56;94.61
11415;BME280;5763;42.714;23.244;2022-07-09T00:13:08;94513.91;;;19.61;95.56
11415;BME280;5763;42.714;23.244;2022-07-09T00:15:35;94511.94;;;19.56;96.40
11415;BME280;5763;42.714;23.244;2022-07-09T00:18:03;94513.69;;;19.59;96.48
11415;BME280;5763;42.714;23.244;2022-07-09T00:20:30;94515.47;;;19.56;97.14
11415;BME280;5763;42.714;23.244;2022-07-09T00:22:57;94511.91;;;19.61;96.74
11415;BME280;5763;42.714;23.244;2022-07-09T00:25:24;94508.59;;;19.68;95.59
11415;BME280;5763;42.714;23.244;2022-07-09T00:27:51;94501.06;;;19.58;95.71
11415;BME280;5763;42.714;23.244;2022-07-09T00:30:17;94503.38;;;19.54;95.72
11415;BME280;5763;42.714;23.244;2022-07-09T00:32:44;94497.84;;;19.43;97.31
11415;BME280;5763;42.714;23.244;2022-07-09T00:35:12;94501.66;;;19.40;97.90
11415;BME280;5763;42.714;23.244;2022-07-09T00:37:39;94491.34;;;19.35;97.06
11415;BME280;5763;42.714;23.244;2022-07-09T00:40:07;94487.56;;;19.32;96.80
11415;BME280;5763;42.714;23.244;2022-07-09T00:42:34;94484.53;;;19.30;96.47
11415;BME280;5763;42.714;23.244;2022-07-09T00:45:00;94485.03;;;19.34;95.80
11415;BME280;5763;42.714;23.244;2022-07-09T00:47:27;94485.06;;;19.29;96.31
11415;BME280;5763;42.714;23.244;2022-07-09T00:49:54;94480.53;;;19.20;97.46
11415;BME280;5763;42.714;23.244;2022-07-09T00:52:23;94482.03;;;19.16;97.64
11415;BME280;5763;42.714;23.244;2022-07-09T00:54:50;94486.59;;;19.13;97.06
11415;BME280;5763;42.714;23.244;2022-07-09T00:57:17;94473.72;;;19.16;95.37
11415;BME280;5763;42.714;23.244;2022-07-09T00:59:45;94475.03;;;19.04;96.98
11415;BME280;5763;42.714;23.244;2022-07-09T01:02:12;94467.97;;;19.03;96.56
11415;BME280;5763;42.714;23.244;2022-07-09T01:04:39;94465.94;;;19.03;95.52
11415;BME280;5763;42.714;23.244;2022-07-09T01:07:06;94476.81;;;18.96;96.11
11415;BME280;5763;42.714;23.244;2022-07-09T01:09:34;94462.72;;;18.94;97.71
11415;BME280;5763;42.714;23.244;2022-07-09T01:12:02;94466.00;;;18.87;97.82
11415;BME280;5763;42.714;23.244;2022-07-09T01:14:28;94460.97;;;18.85;97.42
11415;BME280;5763;42.714;23.244;2022-07-09T01:16:59;94467.75;;;18.90;98.75
11415;BME280;5763;42.714;23.244;2022-07-09T01:19:26;94458.44;;;18.82;100.00
11415;BME280;5763;42.714;23.244;2022-07-09T01:21:55;94465.75;;;18.90;99.22
11415;BME280;5763;42.714;23.244;2022-07-09T01:24:22;94452.41;;;18.89;98.18
11415;BME280;5763;42.714;23.244;2022-07-09T01:26:50;94453.91;;;18.90;97.75
11415;BME280;5763;42.714;23.244;2022-07-09T01:29:18;94450.63;;;18.86;98.69
11415;BME280;5763;42.714;23.244;2022-07-09T01:31:45;94451.88;;;18.90;97.01
11415;BME280;5763;42.714;23.244;2022-07-09T01:34:11;94453.41;;;18.86;97.83
11415;BME280;5763;42.714;23.244;2022-07-09T01:36:38;94447.59;;;18.89;98.26
11415;BME280;5763;42.714;23.244;2022-07-09T01:39:06;94447.84;;;18.91;96.75
11415;BME280;5763;42.714;23.244;2022-07-09T01:41:33;94450.88;;;18.88;96.89
11415;BME280;5763;42.714;23.244;2022-07-09T01:44:00;94451.63;;;18.88;96.39
11415;BME280;5763;42.714;23.244;2022-07-09T01:46:27;94450.13;;;18.93;96.03
11415;BME280;5763;42.714;23.244;2022-07-09T01:48:53;94448.63;;;18.86;96.17
11415;BME280;5763;42.714;23.244;2022-07-09T01:51:20;94442.59;;;18.77;94.36
11415;BME280;5763;42.714;23.244;2022-07-09T01:53:47;94452.91;;;18.82;95.87
11415;BME280;5763;42.714;23.244;2022-07-09T01:56:15;94458.69;;;18.89;94.78
11415;BME280;5763;42.714;23.244;2022-07-09T01:58:42;94444.09;;;18.83;96.97
11415;BME280;5763;42.714;23.244;2022-07-09T02:01:10;94449.91;;;18.80;97.45
11415;BME280;5763;42.714;23.244;2022-07-09T02:03:37;94448.13;;;18.82;96.98
11415;BME280;5763;42.714;23.244;2022-07-09T02:06:04;94442.81;;;18.84;97.02
11415;BME280;5763;42.714;23.244;2022-07-09T02:08:31;94434.53;;;18.73;97.69
11415;BME280;5763;42.714;23.244;2022-07-09T02:10:58;94448.34;;;18.90;92.93
11415;BME280;5763;42.714;23.244;2022-07-09T02:13:26;94446.34;;;18.85;95.24
11415;BME280;5763;42.714;23.244;2022-07-09T02:15:53;94445.13;;;18.80;95.71
11415;BME280;5763;42.714;23.244;2022-07-09T02:18:20;94445.34;;;18.82;95.67
11415;BME280;5763;42.714;23.244;2022-07-09T02:20:47;94456.44;;;18.88;96.15
11415;BME280;5763;42.714;23.244;2022-07-09T02:23:13;94459.72;;;18.86;96.61
11415;BME280;5763;42.714;23.244;2022-07-09T02:25:40;94452.41;;;18.89;97.10
11415;BME280;5763;42.714;23.244;2022-07-09T02:28:07;94461.22;;;18.87;95.98
11415;BME280;5763;42.714;23.244;2022-07-09T02:30:35;94461.47;;;18.84;95.07
11415;BME280;5763;42.714;23.244;2022-07-09T02:33:02;94470.31;;;18.82;96.33
11415;BME280;5763;42.714;23.244;2022-07-09T02:35:30;94462.00;;;18.82;95.79
11415;BME280;5763;42.714;23.244;2022-07-09T02:37:56;94464.25;;;18.78;95.87
11415;BME280;5763;42.714;23.244;2022-07-09T02:40:23;94471.84;;;18.72;97.10
11415;BME280;5763;42.714;23.244;2022-07-09T02:42:50;94473.59;;;18.70;97.55
11415;BME280;5763;42.714;23.244;2022-07-09T02:45:17;94476.13;;;18.73;96.40
11415;BME280;5763;42.714;23.244;2022-07-09T02:47:45;94468.81;;;18.76;96.70
11415;BME280;5763;42.714;23.244;2022-07-09T02:50:12;94467.56;;;18.77;97.19
11415;BME280;5763;42.714;23.244;2022-07-09T02:52:39;94469.56;;;18.71;95.94
11415;BME280;5763;42.714;23.244;2022-07-09T02:55:06;94473.34;;;18.73;96.82
11415;BME280;5763;42.714;23.244;2022-07-09T02:57:33;94475.13;;;18.65;97.95
11415;BME280;5763;42.714;23.244;2022-07-09T03:00:00;94472.38;;;18.65;99.44
11415;BME280;5763;42.714;23.244;2022-07-09T03:02:26;94472.88;;;18.64;98.93
11415;BME280;5763;42.714;23.244;2022-07-09T03:04:54;94471.38;;;18.63;100.00
11415;BME280;5763;42.714;23.244;2022-07-09T03:07:21;94472.38;;;18.60;100.00
11415;BME280;5763;42.714;23.244;2022-07-09T03:09:48;94473.88;;;18.61;99.79
11415;BME280;5763;42.714;23.244;2022-07-09T03:12:15;94474.63;;;18.56;99.81
11415;BME280;5763;42.714;23.244;2022-07-09T03:14:42;94476.41;;;18.53;100.00
11415;BME280;5763;42.714;23.244;2022-07-09T03:17:09;94474.66;;;18.45;100.00
11415;BME280;5763;42.714;23.244;2022-07-09T03:19:35;94476.94;;;18.52;100.00
11415;BME280;5763;42.714;23.244;2022-07-09T03:22:04;94470.63;;;18.57;100.00
11415;BME280;5763;42.714;23.244;2022-07-09T03:24:31;94474.41;;;18.59;100.00
11415;BME280;5763;42.714;23.244;2022-07-09T03:26:58;94467.59;;;18.55;100.00
11415;BME280;5763;42.714;23.244;2022-07-09T03:29:25;94465.09;;;18.57;100.00
11415;BME280;5763;42.714;23.244;2022-07-09T03:31:51;94473.13;;;18.55;100.00
11415;BME280;5763;42.714;23.244;2022-07-09T03:34:19;94476.91;;;18.57;100.00
11415;BME280;5763;42.714;23.244;2022-07-09T03:36:45;94478.94;;;18.51;100.00
11415;BME280;5763;42.714;23.244;2022-07-09T03:39:14;94474.16;;;18.52;100.00
11415;BME280;5763;42.714;23.244;2022-07-09T03:41:40;94479.72;;;18.52;100.00
11415;BME280;5763;42.714;23.244;2022-07-09T03:44:07;94480.19;;;18.56;100.00
11415;BME280;5763;42.714;23.244;2022-07-09T03:46:34;94474.63;;;18.56;100.00
11415;BME280;5763;42.714;23.244;2022-07-09T03:49:01;94478.94;;;18.57;100.00
11415;BME280;5763;42.714;23.244;2022-07-09T03:51:27;94480.44;;;18.69;98.97
11415;BME280;5763;42.714;23.244;2022-07-09T03:53:54;94479.69;;;18.63;100.00
11415;BME280;5763;42.714;23.244;2022-07-09T03:56:22;94485.22;;;18.63;100.00
11415;BME280;5763;42.714;23.244;2022-07-09T03:58:49;94484.97;;;18.66;100.00
11415;BME280;5763;42.714;23.244;2022-07-09T04:01:16;94484.69;;;18.70;100.00
11415;BME280;5763;42.714;23.244;2022-07-09T04:03:43;94479.16;;;18.70;100.00
11415;BME280;5763;42.714;23.244;2022-07-09T04:06:10;94481.16;;;18.75;100.00
11415;BME280;5763;42.714;23.244;2022-07-09T04:08:36;94483.69;;;18.73;100.00
11415;BME280;5763;42.714;23.244;2022-07-09T04:11:03;94484.69;;;18.70;100.00
11415;BME280;5763;42.714;23.244;2022-07-09T04:13:32;94487.97;;;18.74;99.08
11415;BME280;5763;42.714;23.244;2022-07-09T04:15:59;94493.50;;;18.79;99.55
11415;BME280;5763;42.714;23.244;2022-07-09T04:18:26;94491.25;;;18.78;97.80
11415;BME280;5763;42.714;23.244;2022-07-09T04:20:52;94487.50;;;18.64;97.74
11415;BME280;5763;42.714;23.244;2022-07-09T04:23:20;94497.06;;;18.63;100.00
11415;BME280;5763;42.714;23.244;2022-07-09T04:25:47;94494.03;;;18.61;100.00
11415;BME280;5763;42.714;23.244;2022-07-09T04:28:16;94496.31;;;18.63;100.00
11415;BME280;5763;42.714;23.244;2022-07-09T04:30:44;94499.59;;;18.61;100.00
11415;BME280;5763;42.714;23.244;2022-07-09T04:33:11;94494.53;;;18.65;100.00
11415;BME280;5763;42.714;23.244;2022-07-09T04:35:37;94505.38;;;18.69;100.00
11415;BME280;5763;42.714;23.244;2022-07-09T04:38:04;94495.28;;;18.66;100.00
11415;BME280;5763;42.714;23.244;2022-07-09T04:40:32;94463.34;;;18.43;100.00
11415;BME280;5763;42.714;23.244;2022-07-09T04:42:58;94488.25;;;18.65;100.00
11415;BME280;5763;42.714;23.244;2022-07-09T04:45:25;94493.28;;;18.72;100.00
11415;BME280;5763;42.714;23.244;2022-07-09T04:47:56;94488.22;;;18.81;100.00
11415;BME280;5763;42.714;23.244;2022-07-09T04:50:23;94484.19;;;18.77;100.00
11415;BME280;5763;42.714;23.244;2022-07-09T04:52:50;94488.94;;;18.82;100.00
11415;BME280;5763;42.714;23.244;2022-07-09T04:55:17;94489.97;;;18.79;100.00
11415;BME280;5763;42.714;23.244;2022-07-09T04:57:44;94490.72;;;18.85;98.38
11415;BME280;5763;42.714;23.244;2022-07-09T05:00:11;94493.72;;;18.87;98.06
11415;BME280;5763;42.714;23.244;2022-07-09T05:02:38;94492.00;;;18.78;98.88
11415;BME280;5763;42.714;23.244;2022-07-09T05:05:08;94494.03;;;18.78;98.64
11415;BME280;5763;42.714;23.244;2022-07-09T05:07:35;94489.22;;;18.78;99.27
11415;BME280;5763;42.714;23.244;2022-07-09T05:10:03;94503.84;;;18.79;97.68
11415;BME280;5763;42.714;23.244;2022-07-09T05:12:30;94502.06;;;18.81;99.27
11415;BME280;5763;42.714;23.244;2022-07-09T05:14:57;94508.16;;;18.74;98.52
11415;BME280;5763;42.714;23.244;2022-07-09T05:17:24;94498.56;;;18.75;97.99
11415;BME280;5763;42.714;23.244;2022-07-09T05:19:51;94509.88;;;18.83;96.54
11415;BME280;5763;42.714;23.244;2022-07-09T05:22:19;94515.91;;;18.87;95.81
11415;BME280;5763;42.714;23.244;2022-07-09T05:24:48;94508.34;;;18.87;95.25
11415;BME280;5763;42.714;23.244;2022-07-09T05:27:15;94509.34;;;18.90;95.91
11415;BME280;5763;42.714;23.244;2022-07-09T05:29:42;94515.91;;;18.87;97.79
11415;BME280;5763;42.714;23.244;2022-07-09T05:32:08;94522.72;;;18.91;98.72
11415;BME280;5763;42.714;23.244;2022-07-09T05:34:35;94525.50;;;18.86;99.52
11415;BME280;5763;42.714;23.244;2022-07-09T05:37:02;94520.94;;;18.88;98.18
11415;BME280;5763;42.714;23.244;2022-07-09T05:39:30;94526.00;;;18.90;98.64
11415;BME280;5763;42.714;23.244;2022-07-09T05:41:57;94524.47;;;18.94;99.00
11415;BME280;5763;42.714;23.244;2022-07-09T05:44:24;94520.94;;;18.94;100.00
11415;BME280;5763;42.714;23.244;2022-07-09T05:46:51;94518.91;;;19.00;100.00
11415;BME280;5763;42.714;23.244;2022-07-09T05:49:18;94426.31;;;18.40;98.78
11415;BME280;5763;42.714;23.244;2022-07-09T05:51:44;94519.91;;;18.97;99.72
11415;BME280;5763;42.714;23.244;2022-07-09T05:54:11;94529.00;;;19.03;100.00
11415;BME280;5763;42.714;23.244;2022-07-09T05:56:39;94530.72;;;19.17;99.15
11415;BME280;5763;42.714;23.244;2022-07-09T05:59:06;94525.69;;;19.15;99.60
11415;BME280;5763;42.714;23.244;2022-07-09T06:01:33;94527.47;;;19.24;99.06
11415;BME280;5763;42.714;23.244;2022-07-09T06:04:04;94533.47;;;19.28;98.23
11415;BME280;5763;42.714;23.244;2022-07-09T06:06:31;94531.22;;;19.21;94.52
11415;BME280;5763;42.714;23.244;2022-07-09T06:08:58;94529.97;;;19.22;95.44
11415;BME280;5763;42.714;23.244;2022-07-09T06:11:26;94529.97;;;19.22;96.83
11415;BME280;5763;42.714;23.244;2022-07-09T06:13:55;94534.53;;;19.08;97.92
11415;BME280;5763;42.714;23.244;2022-07-09T06:16:22;94529.78;;;18.98;99.26
11415;BME280;5763;42.714;23.244;2022-07-09T06:18:50;94533.31;;;18.93;100.00
11415;BME280;5763;42.714;23.244;2022-07-09T06:21:17;94535.56;;;18.94;100.00
11415;BME280;5763;42.714;23.244;2022-07-09T06:23:44;94538.59;;;18.91;100.00
11415;BME280;5763;42.714;23.244;2022-07-09T06:26:12;94543.41;;;18.90;100.00
11415;BME280;5763;42.714;23.244;2022-07-09T06:28:39;94540.13;;;18.86;100.00
11415;BME280;5763;42.714;23.244;2022-07-09T06:31:08;94539.88;;;18.90;100.00
11415;BME280;5763;42.714;23.244;2022-07-09T06:33:35;94537.63;;;18.83;100.00
11415;BME280;5763;42.714;23.244;2022-07-09T06:36:03;94543.13;;;18.94;100.00
11415;BME280;5763;42.714;23.244;2022-07-09T06:38:31;94546.66;;;18.94;100.00
11415;BME280;5763;42.714;23.244;2022-07-09T06:41:18;94519.97;;;18.80;100.00
11415;BME280;5763;42.714;23.244;2022-07-09T06:43:46;94542.84;;;19.08;98.69
11415;BME280;5763;42.714;23.244;2022-07-09T06:46:15;94551.66;;;19.07;99.61
11415;BME280;5763;42.714;23.244;2022-07-09T06:48:42;94546.13;;;19.07;100.00
11415;BME280;5763;42.714;23.244;2022-07-09T06:51:09;94554.97;;;19.00;100.00
11415;BME280;5763;42.714;23.244;2022-07-09T06:53:36;94551.69;;;18.96;100.00
11415;BME280;5763;42.714;23.244;2022-07-09T06:56:03;94558.75;;;18.97;100.00
11415;BME280;5763;42.714;23.244;2022-07-09T06:58:30;94557.25;;;19.01;100.00
11415;BME280;5763;42.714;23.244;2022-07-09T07:00:57;94556.72;;;19.08;100.00
11415;BME280;5763;42.714;23.244;2022-07-09T07:03:25;94552.16;;;19.11;100.00
11415;BME280;5763;42.714;23.244;2022-07-09T07:05:52;94541.34;;;19.13;100.00
11415;BME280;5763;42.714;23.244;2022-07-09T07:08:19;94547.38;;;19.22;100.00
11415;BME280;5763;42.714;23.244;2022-07-09T07:10:45;94554.94;;;19.27;100.00
11415;BME280;5763;42.714;23.244;2022-07-09T07:13:12;94542.81;;;19.30;99.73
11415;BME280;5763;42.714;23.244;2022-07-09T07:15:39;94554.66;;;19.31;99.83
11415;BME280;5763;42.714;23.244;2022-07-09T07:18:05;94545.84;;;19.27;100.00
11415;BME280;5763;42.714;23.244;2022-07-09T07:20:33;94557.94;;;19.29;100.00
11415;BME280;5763;42.714;23.244;2022-07-09T07:23:00;94555.16;;;19.35;99.63
11415;BME280;5763;42.714;23.244;2022-07-09T07:25:27;94558.69;;;19.35;100.00
11415;BME280;5763;42.714;23.244;2022-07-09T07:27:54;94551.13;;;19.41;100.00
11415;BME280;5763;42.714;23.244;2022-07-09T07:30:20;94554.13;;;19.49;100.00
11415;BME280;5763;42.714;23.244;2022-07-09T07:32:47;94558.63;;;19.52;99.84
11415;BME280;5763;42.714;23.244;2022-07-09T07:35:14;94555.34;;;19.59;98.78
11415;BME280;5763;42.714;23.244;2022-07-09T07:37:42;94554.28;;;19.62;99.39
11415;BME280;5763;42.714;23.244;2022-07-09T07:40:10;94549.69;;;19.75;98.89
11415;BME280;5763;42.714;23.244;2022-07-09T07:42:37;94548.88;;;19.86;98.11
11415;BME280;5763;42.714;23.244;2022-07-09T07:45:05;94547.34;;;19.90;97.10
11415;BME280;5763;42.714;23.244;2022-07-09T07:47:32;94554.38;;;19.97;97.09
11415;BME280;5763;42.714;23.244;2022-07-09T07:49:58;94552.03;;;20.12;96.36
11415;BME280;5763;42.714;23.244;2022-07-09T07:52:26;94552.31;;;20.03;94.64
11415;BME280;5763;42.714;23.244;2022-07-09T07:54:54;94550.81;;;20.02;94.04
11415;BME280;5763;42.714;23.244;2022-07-09T07:57:21;94563.22;;;19.95;95.11
11415;BME280;5763;42.714;23.244;2022-07-09T07:59:48;94556.16;;;19.94;94.66
11415;BME280;5763;42.714;23.244;2022-07-09T08:02:15;94556.16;;;19.94;94.26
11415;BME280;5763;42.714;23.244;2022-07-09T08:04:42;94554.59;;;19.99;94.50
11415;BME280;5763;42.714;23.244;2022-07-09T08:07:09;94556.13;;;20.00;96.17
11415;BME280;5763;42.714;23.244;2022-07-09T08:09:35;94555.44;;;19.88;96.52
11415;BME280;5763;42.714;23.244;2022-07-09T08:12:04;94550.41;;;19.81;95.76
11415;BME280;5763;42.714;23.244;2022-07-09T08:14:31;94555.47;;;19.83;97.00
11415;BME280;5763;42.714;23.244;2022-07-09T08:16:58;94541.78;;;19.90;98.22
11415;BME280;5763;42.714;23.244;2022-07-09T08:19:25;94549.25;;;20.06;96.52
11415;BME280;5763;42.714;23.244;2022-07-09T08:21:52;94551.19;;;20.28;92.70
11415;BME280;5763;42.714;23.244;2022-07-09T08:24:18;94553.84;;;20.44;93.10
11415;BME280;5763;42.714;23.244;2022-07-09T08:26:45;94548.00;;;20.48;93.51
11415;BME280;5763;42.714;23.244;2022-07-09T08:29:13;94552.47;;;20.56;92.29
11415;BME280;5763;42.714;23.244;2022-07-09T08:31:40;94558.84;;;20.51;89.20
11415;BME280;5763;42.714;23.244;2022-07-09T08:34:07;94550.47;;;20.57;89.15
11415;BME280;5763;42.714;23.244;2022-07-09T08:36:33;94554.22;;;20.59;90.16
11415;BME280;5763;42.714;23.244;2022-07-09T08:39:00;94555.72;;;20.60;91.44
11415;BME280;5763;42.714;23.244;2022-07-09T08:41:27;94565.88;;;20.58;88.43
11415;BME280;5763;42.714;23.244;2022-07-09T08:43:54;94565.44;;;20.48;86.08
11415;BME280;5763;42.714;23.244;2022-07-09T08:46:22;94551.72;;;20.56;85.90
11415;BME280;5763;42.714;23.244;2022-07-09T08:48:49;94559.50;;;20.63;87.59
11415;BME280;5763;42.714;23.244;2022-07-09T08:51:17;94565.53;;;20.67;86.27
11415;BME280;5763;42.714;23.244;2022-07-09T08:53:45;94561.72;;;20.70;85.99
11415;BME280;5763;42.714;23.244;2022-07-09T08:56:12;94570.06;;;20.70;88.17
11415;BME280;5763;42.714;23.244;2022-07-09T08:58:39;94565.25;;;20.70;89.68
11415;BME280;5763;42.714;23.244;2022-07-09T09:01:06;94570.63;;;20.63;89.37
11415;BME280;5763;42.714;23.244;2022-07-09T09:03:35;94569.44;;;20.53;89.54
11415;BME280;5763;42.714;23.244;2022-07-09T09:06:03;94553.84;;;20.44;90.27
11415;BME280;5763;42.714;23.244;2022-07-09T09:08:33;94567.25;;;20.40;90.91
11415;BME280;5763;42.714;23.244;2022-07-09T09:11:02;94565.00;;;20.39;91.26
11415;BME280;5763;42.714;23.244;2022-07-09T09:13:29;94572.84;;;20.35;92.46
11415;BME280;5763;42.714;23.244;2022-07-09T09:16:03;94559.03;;;20.24;93.67
11415;BME280;5763;42.714;23.244;2022-07-09T09:18:30;94563.78;;;20.29;94.47
11415;BME280;5763;42.714;23.244;2022-07-09T09:21:03;94572.19;;;20.23;95.56
11415;BME280;5763;42.714;23.244;2022-07-09T09:23:38;94555.03;;;20.19;94.81
11415;BME280;5763;42.714;23.244;2022-07-09T09:26:13;94565.16;;;20.17;95.17
11415;BME280;5763;42.714;23.244;2022-07-09T09:28:47;94564.16;;;20.14;96.33
11415;BME280;5763;42.714;23.244;2022-07-09T09:31:21;94560.59;;;20.14;97.53
11415;BME280;5763;42.714;23.244;2022-07-09T09:33:49;94567.97;;;20.06;95.89
11415;BME280;5763;42.714;23.244;2022-07-09T09:36:31;94566.47;;;19.99;96.34
11415;BME280;5763;42.714;23.244;2022-07-09T09:39:13;94556.94;;;19.89;97.83
11415;BME280;5763;42.714;23.244;2022-07-09T09:41:41;94563.78;;;19.88;99.75
11415;BME280;5763;42.714;23.244;2022-07-09T09:44:10;94563.78;;;19.88;97.92
11415;BME280;5763;42.714;23.244;2022-07-09T09:46:37;94561.78;;;19.83;98.45
11415;BME280;5763;42.714;23.244;2022-07-09T09:49:05;94558.00;;;19.75;99.72
11415;BME280;5763;42.714;23.244;2022-07-09T09:51:36;94555.78;;;19.68;100.00
11415;BME280;5763;42.714;23.244;2022-07-09T09:54:03;94569.19;;;19.64;100.00
11415;BME280;5763;42.714;23.244;2022-07-09T09:56:31;94561.13;;;19.61;100.00
11415;BME280;5763;42.714;23.244;2022-07-09T09:58:59;94555.06;;;19.57;100.00
11415;BME280;5763;42.714;23.244;2022-07-09T10:01:27;94559.66;;;19.49;100.00
11415;BME280;5763;42.714;23.244;2022-07-09T10:03:55;94570.00;;;19.43;100.00
11415;BME280;5763;42.714;23.244;2022-07-09T10:06:22;94569.22;;;19.48;100.00
11415;BME280;5763;42.714;23.244;2022-07-09T10:08:51;94559.44;;;19.41;100.00
11415;BME280;5763;42.714;23.244;2022-07-09T10:11:18;94561.94;;;19.45;100.00
11415;BME280;5763;42.714;23.244;2022-07-09T10:13:55;94563.97;;;19.44;100.00
11415;BME280;5763;42.714;23.244;2022-07-09T10:16:33;94559.69;;;19.43;100.00
11415;BME280;5763;42.714;23.244;2022-07-09T10:19:00;94562.22;;;19.41;100.00
11415;BME280;5763;42.714;23.244;2022-07-09T10:21:35;94558.41;;;19.44;100.00
11415;BME280;5763;42.714;23.244;2022-07-09T10:24:05;94568.28;;;19.40;100.00
11415;BME280;5763;42.714;23.244;2022-07-09T10:26:44;94563.47;;;19.40;100.00
11415;BME280;5763;42.714;23.244;2022-07-09T10:29:22;94575.06;;;19.44;100.00
11415;BME280;5763;42.714;23.244;2022-07-09T10:31:49;94579.09;;;19.43;100.00
11415;BME280;5763;42.714;23.244;2022-07-09T10:34:36;94582.41;;;19.31;100.00
11415;BME280;5763;42.714;23.244;2022-07-09T10:37:05;94586.69;;;19.37;100.00
11415;BME280;5763;42.714;23.244;2022-07-09T10:39:33;94582.16;;;19.34;100.00
11415;BME280;5763;42.714;23.244;2022-07-09T10:42:02;94588.47;;;19.35;100.00
11415;BME280;5763;42.714;23.244;2022-07-09T10:44:34;94595.56;;;19.25;99.94
11415;BME280;5763;42.714;23.244;2022-07-09T10:47:02;94594.53;;;19.28;99.56
11415;BME280;5763;42.714;23.244;2022-07-09T10:49:29;94590.50;;;19.18;96.11
11415;BME280;5763;42.714;23.244;2022-07-09T10:51:56;94585.97;;;19.15;96.51
11415;BME280;5763;42.714;23.244;2022-07-09T10:54:24;94601.34;;;19.21;96.38
11415;BME280;5763;42.714;23.244;2022-07-09T10:56:52;94584.44;;;19.30;97.24
11415;BME280;5763;42.714;23.244;2022-07-09T10:59:20;94585.47;;;19.27;98.83
11415;BME280;5763;42.714;23.244;2022-07-09T11:01:47;94594.78;;;19.30;97.75
11415;BME280;5763;42.714;23.244;2022-07-09T11:04:25;94595.03;;;19.21;97.45
11415;BME280;5763;42.714;23.244;2022-07-09T11:06:52;94597.56;;;19.19;98.47
11415;BME280;5763;42.714;23.244;2022-07-09T11:09:19;94599.84;;;19.26;94.54
11415;BME280;5763;42.714;23.244;2022-07-09T11:11:46;94586.97;;;19.34;95.36
11415;BME280;5763;42.714;23.244;2022-07-09T11:14:15;94584.88;;;19.51;97.99
11415;BME280;5763;42.714;23.244;2022-07-09T11:16:42;94588.16;;;19.49;95.60
11415;BME280;5763;42.714;23.244;2022-07-09T11:19:19;94593.97;;;19.46;96.80
11415;BME280;5763;42.714;23.244;2022-07-09T11:21:47;94598.75;;;19.45;96.76
11415;BME280;5763;42.714;23.244;2022-07-09T11:24:15;94597.28;;;19.28;92.10
11415;BME280;5763;42.714;23.244;2022-07-09T11:26:42;94601.34;;;19.32;95.54
11415;BME280;5763;42.714;23.244;2022-07-09T11:29:10;94601.56;;;19.34;94.28
11415;BME280;5763;42.714;23.244;2022-07-09T11:31:46;94608.41;;;19.33;91.78
11415;BME280;5763;42.714;23.244;2022-07-09T11:34:14;94604.88;;;19.27;92.60
11415;BME280;5763;42.714;23.244;2022-07-09T11:36:42;94597.81;;;19.21;94.61
11415;BME280;5763;42.714;23.244;2022-07-09T11:39:09;94583.44;;;19.17;93.22
11415;BME280;5763;42.714;23.244;2022-07-09T11:41:40;94585.97;;;19.15;95.26
11415;BME280;5763;42.714;23.244;2022-07-09T11:44:07;94584.97;;;19.29;95.39
11415;BME280;5763;42.714;23.244;2022-07-09T11:46:35;94583.34;;;19.61;93.65
11415;BME280;5763;42.714;23.244;2022-07-09T11:49:13;94587.63;;;19.62;91.08
11415;BME280;5763;42.714;23.244;2022-07-09T11:51:41;94584.50;;;19.82;92.19
11415;BME280;5763;42.714;23.244;2022-07-09T11:54:08;94579.94;;;19.84;90.75
11415;BME280;5763;42.714;23.244;2022-07-09T11:56:41;94577.69;;;19.83;90.70
11415;BME280;5763;42.714;23.244;2022-07-09T11:59:10;94578.94;;;19.87;91.51
11415;BME280;5763;42.714;23.244;2022-07-09T12:01:36;94588.50;;;19.92;91.72
11415;BME280;5763;42.714;23.244;2022-07-09T12:04:06;94579.97;;;19.79;87.92
11415;BME280;5763;42.714;23.244;2022-07-09T12:06:33;94581.22;;;19.78;90.98
11415;BME280;5763;42.714;23.244;2022-07-09T12:09:00;94584.78;;;19.78;91.67
11415;BME280;5763;42.714;23.244;2022-07-09T12:11:28;94582.50;;;19.77;91.73
11415;BME280;5763;42.714;23.244;2022-07-09T12:13:54;94573.84;;;19.91;91.70
11415;BME280;5763;42.714;23.244;2022-07-09T12:16:21;94560.13;;;20.10;91.35
11415;BME280;5763;42.714;23.244;2022-07-09T12:18:48;94579.84;;;20.47;87.79
11415;BME280;5763;42.714;23.244;2022-07-09T12:21:17;94570.75;;;20.76;88.18
11415;BME280;5763;42.714;23.244;2022-07-09T12:23:44;94572.94;;;20.88;83.96
11415;BME280;5763;42.714;23.244;2022-07-09T12:26:11;94573.97;;;20.85;85.02
11415;BME280;5763;42.714;23.244;2022-07-09T12:28:38;94573.34;;;20.68;82.53
11415;BME280;5763;42.714;23.244;2022-07-09T12:31:05;94566.09;;;20.60;82.58
11415;BME280;5763;42.714;23.244;2022-07-09T12:33:31;94560.78;;;20.62;84.42
11415;BME280;5763;42.714;23.244;2022-07-09T12:35:58;94571.72;;;20.54;81.14
11415;BME280;5763;42.714;23.244;2022-07-09T12:38:26;94574.84;;;20.40;80.16
11415;BME280;5763;42.714;23.244;2022-07-09T12:40:53;94571.34;;;20.34;80.67
11415;BME280;5763;42.714;23.244;2022-07-09T12:43:20;94578.47;;;20.29;83.51
11415;BME280;5763;42.714;23.244;2022-07-09T12:45:47;94577.38;;;20.38;82.56
11415;BME280;5763;42.714;23.244;2022-07-09T12:48:13;94573.81;;;20.43;82.42
11415;BME280;5763;42.714;23.244;2022-07-09T12:50:40;94567.28;;;20.35;78.69
11415;BME280;5763;42.714;23.244;2022-07-09T12:53:07;94571.03;;;20.43;79.59
11415;BME280;5763;42.714;23.244;2022-07-09T12:55:35;94555.16;;;20.38;80.29
11415;BME280;5763;42.714;23.244;2022-07-09T12:58:02;94555.72;;;20.31;80.27
11415;BME280;5763;42.714;23.244;2022-07-09T13:00:29;94554.72;;;20.28;83.61